Time;durP1;ratioP1;P1;durP2;ratioP2;P2;SDS_P1;SDS_P2;PMS_P1;PMS_P2;Temp;Humidity;BMP_temperature;BMP_pressure;BME280_temperature;BME280_humidity;BME280_pressure;Samples;Min_cycle;Max_cycle;Signal;HPM_P1;HPM_P2
2023/03/01 00:00:54;;;;;;;44.63;18.87;;;-1.70;81.70;;;;;;5004285;28;20456;-57
2023/03/01 00:03:20;;;;;;;28.57;15.17;;;-1.70;82.50;;;;;;5008934;28;20456;-57
2023/03/01 00:05:46;;;;;;;26.50;14.17;;;-1.70;82.20;;;;;;5009215;28;20197;-56
2023/03/01 00:08:12;;;;;;;25.53;13.27;;;-1.60;83.00;;;;;;5011557;28;20682;-57
2023/03/01 00:10:38;;;;;;;28.97;15.13;;;-1.60;82.80;;;;;;5002452;28;20512;-57
2023/03/01 00:13:05;;;;;;;27.37;15.40;;;-1.60;82.70;;;;;;5013286;28;20261;-57
2023/03/01 00:15:31;;;;;;;30.77;16.17;;;-1.60;83.70;;;;;;5010075;28;21073;-58
2023/03/01 00:17:57;;;;;;;33.27;17.40;;;-1.60;84.40;;;;;;5010523;28;20865;-57
2023/03/01 00:20:23;;;;;;;32.43;15.53;;;-1.50;84.40;;;;;;5010354;28;20487;-56
2023/03/01 00:22:48;;;;;;;23.50;14.57;;;-1.50;84.30;;;;;;5011338;28;20264;-56
2023/03/01 00:25:14;;;;;;;31.10;16.23;;;-1.40;84.20;;;;;;5010104;28;20829;-57
2023/03/01 00:27:40;;;;;;;26.77;14.03;;;-1.40;83.90;;;;;;5011216;28;20174;-57
2023/03/01 00:30:06;;;;;;;25.83;13.13;;;-1.40;83.90;;;;;;5013224;28;20173;-57
2023/03/01 00:32:31;;;;;;;28.50;15.47;;;-1.40;83.40;;;;;;5008104;28;20262;-58
2023/03/01 00:34:57;;;;;;;30.97;15.87;;;-1.30;83.30;;;;;;5010771;28;20516;-57
2023/03/01 00:37:23;;;;;;;33.47;14.43;;;-1.30;84.20;;;;;;5010997;28;20175;-57
2023/03/01 00:39:49;;;;;;;24.43;13.40;;;-1.30;84.00;;;;;;5010743;28;20175;-57
2023/03/01 00:42:16;;;;;;;32.43;15.40;;;-1.20;84.20;;;;;;5018804;28;20522;-57
2023/03/01 00:44:41;;;;;;;24.10;14.60;;;-1.20;84.00;;;;;;5012949;28;20343;-57
2023/03/01 00:47:07;;;;;;;26.63;14.40;;;-1.20;84.00;;;;;;5013648;28;20952;-58
2023/03/01 00:49:33;;;;;;;26.33;14.93;;;-1.20;83.80;;;;;;5010992;28;20210;-57
2023/03/01 00:51:58;;;;;;;29.00;15.03;;;-1.10;83.80;;;;;;5005033;28;20217;-58
2023/03/01 00:54:24;;;;;;;34.33;15.90;;;-1.10;83.70;;;;;;5013658;28;20687;-57
2023/03/01 00:56:49;;;;;;;30.30;16.30;;;-1.10;83.40;;;;;;5004856;28;20254;-58
2023/03/01 00:59:15;;;;;;;30.50;15.93;;;-1.10;82.60;;;;;;5002909;28;20923;-57
2023/03/01 01:01:40;;;;;;;33.33;16.10;;;-1.10;82.50;;;;;;5006978;28;20178;-59
2023/03/01 01:04:10;;;;;;;28.03;15.17;;;-1.10;82.70;;;;;;5007657;28;20670;-57
2023/03/01 01:06:42;;;;;;;28.33;15.43;;;-1.00;82.50;;;;;;5002522;28;20196;-58
2023/03/01 01:09:16;;;;;;;30.13;15.30;;;-1.00;82.20;;;;;;5004112;28;20522;-58
2023/03/01 01:11:43;;;;;;;29.03;15.97;;;-1.00;82.00;;;;;;5018132;28;21049;-56
2023/03/01 01:14:08;;;;;;;28.47;15.03;;;-0.90;82.00;;;;;;5008753;28;20556;-58
2023/03/01 01:16:34;;;;;;;31.07;15.90;;;-0.90;81.90;;;;;;5021496;28;20512;-58
2023/03/01 01:18:59;;;;;;;33.20;16.40;;;-0.90;81.60;;;;;;5008960;28;21871;-57
2023/03/01 01:21:26;;;;;;;30.03;16.73;;;-0.90;81.10;;;;;;5012267;28;20178;-57
2023/03/01 01:23:52;;;;;;;29.70;16.40;;;-0.90;81.70;;;;;;5007635;28;20207;-56
2023/03/01 01:26:21;;;;;;;28.47;16.37;;;-0.80;81.40;;;;;;5003890;28;20439;-55
2023/03/01 01:28:47;;;;;;;31.27;16.53;;;-0.80;82.20;;;;;;5004851;28;20441;-57
2023/03/01 01:31:14;;;;;;;33.50;17.37;;;-0.80;81.70;;;;;;5009155;28;20840;-57
2023/03/01 01:33:39;;;;;;;28.27;16.13;;;-0.80;82.10;;;;;;5009623;28;21130;-57
2023/03/01 01:36:07;;;;;;;33.40;16.73;;;-0.70;82.70;;;;;;5009080;28;20444;-58
2023/03/01 01:38:33;;;;;;;30.60;15.80;;;-0.70;82.60;;;;;;5015837;28;20198;-58
2023/03/01 01:40:59;;;;;;;31.43;16.57;;;-0.70;82.30;;;;;;5001748;28;20979;-57
2023/03/01 01:43:46;;;;;;;31.80;16.63;;;-0.70;82.20;;;;;;5005427;28;20474;-57
2023/03/01 01:46:33;;;;;;;31.00;16.63;;;-0.70;82.70;;;;;;5005054;28;20175;-57
2023/03/01 01:49:04;;;;;;;28.83;15.67;;;-0.60;83.10;;;;;;5005859;28;20506;-58
2023/03/01 01:51:38;;;;;;;34.07;15.90;;;-0.60;83.00;;;;;;5004111;28;20435;-56
2023/03/01 01:54:12;;;;;;;31.40;15.57;;;-0.60;83.20;;;;;;5000771;28;20474;-57
2023/03/01 01:56:41;;;;;;;30.77;17.30;;;-0.60;82.70;;;;;;5004757;28;20435;-57
2023/03/01 01:59:07;;;;;;;35.03;17.27;;;-0.60;82.40;;;;;;5005091;28;20426;-57
2023/03/01 02:01:33;;;;;;;34.70;17.20;;;-0.50;82.60;;;;;;4997116;28;20491;-57
2023/03/01 02:03:59;;;;;;;33.30;17.17;;;-0.50;82.20;;;;;;5006090;28;20285;-57
2023/03/01 02:06:30;;;;;;;34.20;17.50;;;-0.50;82.20;;;;;;5005690;28;20191;-57
2023/03/01 02:09:02;;;;;;;29.20;14.60;;;-0.50;81.70;;;;;;5007019;28;21048;-58
2023/03/01 02:11:30;;;;;;;34.10;17.97;;;-0.50;81.80;;;;;;5007217;28;20432;-58
2023/03/01 02:13:56;;;;;;;31.10;16.80;;;-0.40;81.70;;;;;;5005290;28;20495;-57
2023/03/01 02:16:22;;;;;;;27.70;16.60;;;-0.40;81.80;;;;;;5007189;28;20434;-58
2023/03/01 02:18:49;;;;;;;32.37;17.90;;;-0.40;82.00;;;;;;5005151;28;20193;-58
2023/03/01 02:21:31;;;;;;;33.00;17.07;;;-0.40;83.00;;;;;;5007134;28;20188;-57
2023/03/01 02:24:01;;;;;;;34.10;16.97;;;-0.40;82.40;;;;;;5008160;28;20554;-57
2023/03/01 02:26:52;;;;;;;31.37;15.57;;;-0.40;82.60;;;;;;5003748;28;20433;-58
2023/03/01 02:29:18;;;;;;;32.47;15.93;;;-0.40;82.70;;;;;;5007832;28;20436;-59
2023/03/01 02:31:44;;;;;;;31.03;15.77;;;-0.40;81.40;;;;;;4998566;28;20437;-57
2023/03/01 02:34:19;;;;;;;29.90;16.40;;;-0.30;81.50;;;;;;5005073;28;20314;-58
2023/03/01 02:36:47;;;;;;;30.13;15.60;;;-0.30;81.30;;;;;;5007034;28;20434;-57
2023/03/01 02:39:21;;;;;;;33.77;16.50;;;-0.30;81.70;;;;;;5007459;28;20492;-58
2023/03/01 02:41:49;;;;;;;28.53;15.80;;;-0.30;82.00;;;;;;5005509;28;20585;-58
2023/03/01 02:44:15;;;;;;;29.73;15.73;;;-0.30;82.10;;;;;;5011326;28;20457;-57
2023/03/01 02:46:48;;;;;;;29.17;16.27;;;-0.30;81.80;;;;;;5005154;28;20425;-57
2023/03/01 02:49:22;;;;;;;34.13;16.90;;;-0.30;81.00;;;;;;5003172;28;20440;-57
2023/03/01 02:52:41;;;;;;;36.03;17.27;;;-0.20;80.70;;;;;;5004333;28;20449;-57
2023/03/01 02:55:13;;;;;;;30.77;15.60;;;-0.20;80.50;;;;;;4998835;28;20450;-59
2023/03/01 02:57:45;;;;;;;29.17;16.33;;;-0.20;80.90;;;;;;4997959;28;20429;-57
2023/03/01 03:00:18;;;;;;;33.53;16.50;;;-0.20;80.60;;;;;;5001795;28;20444;-59
2023/03/01 03:02:45;;;;;;;33.60;17.00;;;-0.20;79.90;;;;;;5004120;28;20509;-59
2023/03/01 03:05:20;;;;;;;33.47;17.40;;;-0.20;80.00;;;;;;5006663;28;20456;-58
2023/03/01 03:07:47;;;;;;;32.37;16.90;;;-0.20;80.50;;;;;;5003036;28;20519;-57
2023/03/01 03:10:24;;;;;;;35.90;16.77;;;-0.20;80.80;;;;;;5007813;28;20487;-58
2023/03/01 03:12:52;;;;;;;31.03;16.00;;;-0.20;80.40;;;;;;5006593;28;20875;-58
2023/03/01 03:15:20;;;;;;;33.80;16.87;;;-0.20;80.50;;;;;;5005650;28;20465;-58
2023/03/01 03:17:45;;;;;;;29.87;16.53;;;-0.20;81.10;;;;;;5007758;28;21079;-57
2023/03/01 03:20:18;;;;;;;32.97;17.10;;;-0.20;81.40;;;;;;5004282;28;20433;-58
2023/03/01 03:22:45;;;;;;;33.17;15.97;;;-0.10;81.50;;;;;;5006762;28;20684;-58
2023/03/01 03:25:10;;;;;;;30.93;16.63;;;-0.10;81.30;;;;;;5004878;28;20956;-58
2023/03/01 03:27:42;;;;;;;31.93;17.50;;;-0.10;81.00;;;;;;5002750;28;20441;-58
2023/03/01 03:30:12;;;;;;;33.90;17.73;;;-0.10;81.00;;;;;;5000684;28;20658;-57
2023/03/01 03:32:39;;;;;;;35.50;17.20;;;-0.10;80.90;;;;;;5009984;28;20426;-58
2023/03/01 03:35:09;;;;;;;35.43;17.67;;;-0.10;80.80;;;;;;5009727;28;20499;-58
2023/03/01 03:40:24;;;;;;;36.00;17.93;;;-0.10;81.50;;;;;;4997473;28;20444;-58
2023/03/01 03:42:50;;;;;;;36.00;17.30;;;-0.10;81.90;;;;;;5006815;28;20565;-58
2023/03/01 03:45:16;;;;;;;33.27;18.60;;;-0.10;82.00;;;;;;5006335;28;20933;-58
2023/03/01 03:47:42;;;;;;;31.47;17.53;;;-0.10;82.50;;;;;;5004253;28;20191;-58
2023/03/01 03:50:10;;;;;;;37.20;18.97;;;-0.10;82.80;;;;;;5000968;28;20509;-58
2023/03/01 03:52:35;;;;;;;38.87;18.10;;;-0.10;82.60;;;;;;5004743;28;20959;-58
2023/03/01 03:55:01;;;;;;;34.60;18.73;;;-0.10;82.50;;;;;;5001378;28;20465;-57
2023/03/01 03:57:26;;;;;;;36.50;17.97;;;-0.10;82.60;;;;;;5003959;28;20208;-58
2023/03/01 03:59:52;;;;;;;41.90;18.87;;;-0.20;82.30;;;;;;5000963;28;20190;-59
2023/03/01 04:02:21;;;;;;;38.30;17.50;;;-0.20;82.50;;;;;;5003155;28;20273;-59
2023/03/01 04:04:49;;;;;;;39.83;18.33;;;-0.10;83.30;;;;;;5002830;28;20199;-59
2023/03/01 04:07:15;;;;;;;34.93;17.27;;;-0.10;83.20;;;;;;5001117;28;20991;-57
2023/03/01 04:09:42;;;;;;;37.00;17.70;;;-0.20;83.30;;;;;;5004980;28;20440;-59
2023/03/01 04:12:08;;;;;;;35.00;18.13;;;-0.10;84.00;;;;;;4999661;28;20464;-58
2023/03/01 04:14:34;;;;;;;37.03;19.07;;;-0.10;83.70;;;;;;5008817;28;20863;-58
2023/03/01 04:16:59;;;;;;;34.97;18.13;;;-0.10;83.90;;;;;;5003945;28;20449;-58
2023/03/01 04:19:26;;;;;;;37.43;19.90;;;-0.10;84.00;;;;;;5004918;28;20707;-60
2023/03/01 04:21:52;;;;;;;39.63;18.67;;;-0.10;83.90;;;;;;5005055;28;20218;-58
2023/03/01 04:24:18;;;;;;;34.90;17.90;;;-0.10;84.20;;;;;;5005814;28;20470;-59
2023/03/01 04:26:44;;;;;;;37.97;18.37;;;-0.10;84.00;;;;;;5005748;28;20444;-59
2023/03/01 04:29:09;;;;;;;34.87;18.57;;;-0.10;84.10;;;;;;5006096;28;20726;-59
2023/03/01 04:31:35;;;;;;;39.00;18.73;;;-0.10;84.60;;;;;;5005570;28;20178;-60
2023/03/01 04:34:01;;;;;;;40.50;19.50;;;-0.10;84.80;;;;;;5004932;28;20591;-58
2023/03/01 04:36:28;;;;;;;30.00;17.20;;;-0.10;84.90;;;;;;5004329;28;20756;-58
2023/03/01 04:38:54;;;;;;;39.97;18.40;;;-0.10;84.40;;;;;;5008498;28;20190;-59
2023/03/01 04:41:22;;;;;;;37.67;17.57;;;-0.10;84.10;;;;;;5009575;28;20455;-58
2023/03/01 04:43:48;;;;;;;35.27;18.60;;;-0.10;84.10;;;;;;5003867;28;20966;-60
2023/03/01 04:46:17;;;;;;;41.30;19.90;;;-0.10;84.40;;;;;;5006326;28;20435;-59
2023/03/01 04:48:44;;;;;;;42.70;19.23;;;-0.10;84.40;;;;;;5008031;28;20433;-58
2023/03/01 04:51:13;;;;;;;37.33;19.87;;;-0.10;84.30;;;;;;5002692;28;20529;-59
2023/03/01 04:53:39;;;;;;;33.83;18.37;;;-0.10;84.00;;;;;;5002142;28;20484;-59
2023/03/01 04:56:06;;;;;;;38.00;18.70;;;-0.10;84.70;;;;;;4992977;28;20436;-58
2023/03/01 04:58:31;;;;;;;35.13;18.20;;;-0.10;86.00;;;;;;5003173;28;20476;-58
2023/03/01 05:00:57;;;;;;;37.90;17.60;;;-0.10;88.90;;;;;;5002264;28;20466;-58
2023/03/01 05:03:23;;;;;;;32.60;17.47;;;0.00;89.90;;;;;;5019926;28;20461;-59
2023/03/01 05:05:51;;;;;;;41.30;19.77;;;0.00;87.80;;;;;;5005867;28;20198;-59
2023/03/01 05:08:17;;;;;;;32.67;18.40;;;0.10;85.50;;;;;;5003903;28;20175;-59
2023/03/01 05:10:52;;;;;;;39.80;20.00;;;0.10;84.40;;;;;;4996478;28;20446;-59
2023/03/01 05:13:22;;;;;;;37.93;18.03;;;0.10;83.60;;;;;;5001692;28;20946;-59
2023/03/01 05:15:56;;;;;;;35.13;17.73;;;0.10;84.00;;;;;;5004792;28;20468;-58
2023/03/01 05:18:25;;;;;;;34.43;18.47;;;0.00;83.60;;;;;;5001720;28;20428;-59
2023/03/01 05:20:56;;;;;;;31.77;17.70;;;0.00;83.20;;;;;;5007298;28;20439;-61
2023/03/01 05:23:22;;;;;;;41.50;19.53;;;0.10;83.00;;;;;;5013739;28;20901;-59
2023/03/01 05:25:49;;;;;;;37.80;19.20;;;0.10;82.80;;;;;;5006288;28;20518;-59
2023/03/01 05:28:14;;;;;;;39.60;19.83;;;0.10;82.30;;;;;;5000144;28;20442;-59
2023/03/01 05:30:41;;;;;;;34.70;18.03;;;0.10;82.70;;;;;;5003737;28;20449;-59
2023/03/01 05:33:12;;;;;;;34.37;17.70;;;0.10;82.80;;;;;;5008733;28;20414;-60
2023/03/01 05:35:39;;;;;;;37.90;18.93;;;0.10;83.00;;;;;;5000055;28;20453;-59
2023/03/01 05:38:04;;;;;;;33.67;17.87;;;0.10;83.10;;;;;;4999320;28;20503;-59
2023/03/01 05:40:33;;;;;;;36.17;18.87;;;0.10;82.80;;;;;;4983511;28;20457;-61
2023/03/01 05:42:58;;;;;;;42.40;19.77;;;0.10;82.10;;;;;;4997501;28;20198;-60
2023/03/01 05:45:26;;;;;;;32.63;18.40;;;0.10;82.10;;;;;;5004100;28;20960;-59
2023/03/01 05:47:52;;;;;;;36.20;17.33;;;0.00;81.80;;;;;;5002489;28;20187;-58
2023/03/01 05:50:25;;;;;;;32.57;18.00;;;0.00;81.50;;;;;;5001982;28;21091;-60
2023/03/01 05:53:17;;;;;;;35.30;17.00;;;0.00;82.10;;;;;;5007754;28;20786;-59
2023/03/01 05:55:45;;;;;;;38.77;18.43;;;0.00;82.40;;;;;;4987858;28;20563;-58
2023/03/01 05:58:14;;;;;;;37.27;19.37;;;0.00;81.80;;;;;;5004024;28;20613;-59
2023/03/01 06:00:40;;;;;;;35.33;16.53;;;0.00;81.70;;;;;;4997363;28;20524;-58
2023/03/01 06:03:05;;;;;;;39.37;18.67;;;0.00;81.80;;;;;;5000303;28;20524;-59
2023/03/01 06:05:31;;;;;;;42.43;17.47;;;0.00;81.50;;;;;;5003412;28;20206;-59
2023/03/01 06:08:01;;;;;;;32.07;17.90;;;0.00;82.00;;;;;;5001487;28;20432;-59
2023/03/01 06:10:27;;;;;;;37.97;18.50;;;0.00;81.20;;;;;;5007607;28;20193;-60
2023/03/01 06:12:53;;;;;;;37.77;19.63;;;-0.10;81.70;;;;;;5009912;28;20816;-58
2023/03/01 06:15:20;;;;;;;36.60;18.80;;;-0.10;82.70;;;;;;4999199;28;20219;-59
2023/03/01 06:17:47;;;;;;;40.13;18.70;;;-0.10;82.30;;;;;;5006144;28;20456;-58
2023/03/01 06:20:16;;;;;;;39.27;18.93;;;-0.10;82.40;;;;;;5005142;28;20445;-59
2023/03/01 06:22:43;;;;;;;35.73;18.27;;;-0.10;83.40;;;;;;5009103;28;20473;-59
2023/03/01 06:25:09;;;;;;;35.33;19.20;;;-0.10;82.90;;;;;;5007273;28;20465;-59
2023/03/01 06:27:35;;;;;;;38.80;18.93;;;-0.10;83.70;;;;;;5004375;28;20441;-59
2023/03/01 06:30:02;;;;;;;38.27;18.47;;;-0.10;84.30;;;;;;5020261;28;20584;-60
2023/03/01 06:32:27;;;;;;;39.03;18.70;;;-0.10;84.10;;;;;;5003209;28;20450;-59
2023/03/01 06:34:53;;;;;;;34.57;17.43;;;-0.10;84.40;;;;;;5004080;28;20468;-58
2023/03/01 06:37:18;;;;;;;39.20;18.50;;;-0.20;83.50;;;;;;5006001;28;20549;-58
2023/03/01 06:39:44;;;;;;;33.30;17.63;;;-0.20;84.40;;;;;;5008333;28;20187;-59
2023/03/01 06:42:10;;;;;;;42.90;17.80;;;-0.20;86.00;;;;;;5007018;28;20265;-58
2023/03/01 06:44:37;;;;;;;35.53;17.97;;;-0.20;86.20;;;;;;5006455;28;20190;-59
2023/03/01 06:47:03;;;;;;;37.80;17.80;;;-0.20;85.80;;;;;;5007751;28;20443;-59
2023/03/01 06:49:28;;;;;;;36.93;18.23;;;-0.20;86.30;;;;;;5001632;28;20441;-59
2023/03/01 06:51:54;;;;;;;42.00;17.90;;;-0.20;85.90;;;;;;5003575;28;20464;-59
2023/03/01 06:54:22;;;;;;;39.70;16.93;;;-0.20;86.30;;;;;;5006533;28;20229;-59
2023/03/01 06:56:48;;;;;;;39.97;17.70;;;-0.20;86.10;;;;;;5009572;28;20240;-58
2023/03/01 06:59:15;;;;;;;43.30;19.30;;;-0.20;86.80;;;;;;5002423;28;20438;-59
2023/03/01 07:01:40;;;;;;;35.07;17.40;;;-0.20;86.90;;;;;;4995721;28;20537;-58
2023/03/01 07:04:06;;;;;;;37.27;17.77;;;-0.20;86.80;;;;;;5012575;28;21089;-59
2023/03/01 07:06:32;;;;;;;33.97;17.40;;;-0.20;85.80;;;;;;5002717;28;20253;-59
2023/03/01 07:08:57;;;;;;;32.80;16.70;;;-0.20;85.50;;;;;;5005587;28;20240;-58
2023/03/01 07:11:23;;;;;;;33.50;17.23;;;-0.20;85.90;;;;;;5011310;28;20441;-59
2023/03/01 07:13:49;;;;;;;37.10;18.90;;;-0.20;86.20;;;;;;5000978;28;20201;-59
2023/03/01 07:16:14;;;;;;;34.70;18.37;;;-0.20;86.30;;;;;;5002673;28;20300;-56
2023/03/01 07:18:40;;;;;;;42.13;18.67;;;-0.20;86.00;;;;;;5006938;28;20197;-58
2023/03/01 07:21:13;;;;;;;34.83;18.43;;;-0.20;84.90;;;;;;5006735;28;20182;-54
2023/03/01 07:23:38;;;;;;;46.30;18.83;;;-0.20;84.80;;;;;;5001797;28;20469;-57
2023/03/01 07:26:04;;;;;;;31.83;17.07;;;-0.10;84.40;;;;;;5001726;28;20441;-58
2023/03/01 07:28:30;;;;;;;39.47;18.93;;;-0.10;85.30;;;;;;4995048;28;20178;-58
2023/03/01 07:31:01;;;;;;;33.37;17.10;;;-0.10;86.30;;;;;;5001563;28;20240;-60
2023/03/01 07:33:27;;;;;;;36.60;17.67;;;-0.10;85.50;;;;;;5005273;28;20429;-58
2023/03/01 07:36:01;;;;;;;30.43;17.07;;;-0.10;84.90;;;;;;5003057;28;20468;-58
2023/03/01 07:38:27;;;;;;;38.17;17.33;;;-0.10;84.60;;;;;;5004244;28;20274;-57
2023/03/01 07:40:53;;;;;;;35.87;16.93;;;-0.10;84.00;;;;;;5001728;28;20441;-59
2023/03/01 07:43:19;;;;;;;37.60;16.90;;;-0.10;84.50;;;;;;5006920;28;20531;-60
2023/03/01 07:45:44;;;;;;;36.50;18.13;;;-0.10;85.00;;;;;;5001654;28;20340;-58
2023/03/01 07:48:10;;;;;;;34.37;18.23;;;0.00;84.80;;;;;;5006047;28;20520;-58
2023/03/01 07:50:35;;;;;;;36.53;18.20;;;0.00;84.00;;;;;;5010094;28;20175;-58
2023/03/01 07:53:02;;;;;;;33.40;17.93;;;0.00;83.40;;;;;;5004937;28;20622;-58
2023/03/01 07:55:28;;;;;;;34.37;17.77;;;0.00;83.20;;;;;;5006884;28;20677;-58
2023/03/01 07:57:53;;;;;;;31.27;16.20;;;0.00;83.50;;;;;;5005259;28;20441;-58
2023/03/01 08:00:19;;;;;;;34.50;16.07;;;0.00;83.40;;;;;;5004768;28;20201;-58
2023/03/01 08:02:45;;;;;;;34.73;17.57;;;0.00;83.80;;;;;;5006425;28;20239;-58
2023/03/01 08:05:10;;;;;;;30.97;16.53;;;0.00;83.20;;;;;;5013138;28;20201;-58
2023/03/01 08:07:36;;;;;;;33.03;16.80;;;0.00;84.20;;;;;;5009307;28;20182;-59
2023/03/01 08:10:02;;;;;;;34.80;17.80;;;0.00;84.70;;;;;;5006493;28;20187;-60
2023/03/01 08:12:28;;;;;;;34.80;17.10;;;0.00;84.30;;;;;;5009463;28;20264;-58
2023/03/01 08:14:54;;;;;;;34.67;17.47;;;0.00;83.20;;;;;;5006501;28;20458;-58
2023/03/01 08:17:20;;;;;;;33.10;17.17;;;0.00;83.50;;;;;;5009746;28;20192;-58
2023/03/01 08:19:46;;;;;;;33.10;16.93;;;0.00;83.50;;;;;;5009230;28;20460;-58
2023/03/01 08:22:11;;;;;;;34.70;17.80;;;0.00;82.60;;;;;;5010940;28;20520;-57
2023/03/01 08:24:37;;;;;;;31.93;16.53;;;0.00;82.10;;;;;;5009457;28;21006;-56
2023/03/01 08:27:03;;;;;;;31.70;16.80;;;0.00;82.20;;;;;;5004957;28;20236;-58
2023/03/01 08:29:31;;;;;;;35.17;18.03;;;0.00;81.90;;;;;;5012021;28;20202;-58
2023/03/01 08:31:56;;;;;;;39.77;18.40;;;0.00;81.50;;;;;;5001770;28;20187;-56
2023/03/01 08:34:22;;;;;;;34.13;16.80;;;0.00;82.40;;;;;;5005502;28;20457;-57
2023/03/01 08:36:48;;;;;;;29.27;16.17;;;0.00;83.00;;;;;;5005750;28;20668;-56
2023/03/01 08:39:16;;;;;;;34.80;17.37;;;0.10;82.50;;;;;;5004895;28;20674;-58
2023/03/01 08:41:42;;;;;;;35.80;17.23;;;0.10;81.90;;;;;;5001020;28;20237;-58
2023/03/01 08:44:09;;;;;;;29.27;16.00;;;0.10;80.70;;;;;;5009316;28;20530;-57
2023/03/01 08:46:37;;;;;;;35.33;17.20;;;0.10;80.20;;;;;;5008014;28;20809;-58
2023/03/01 08:49:05;;;;;;;30.83;17.10;;;0.20;80.10;;;;;;5002209;28;20438;-58
2023/03/01 08:51:36;;;;;;;28.03;15.40;;;0.20;79.40;;;;;;5008770;28;20445;-57
2023/03/01 08:54:06;;;;;;;31.70;16.63;;;0.20;79.40;;;;;;5008944;28;20542;-59
2023/03/01 08:56:32;;;;;;;37.00;17.50;;;0.20;78.40;;;;;;5008909;28;20433;-59
2023/03/01 08:58:58;;;;;;;33.47;17.30;;;0.20;78.40;;;;;;5004587;28;20880;-59
2023/03/01 09:01:23;;;;;;;35.97;17.40;;;0.20;77.80;;;;;;5008361;28;21029;-59
2023/03/01 09:03:49;;;;;;;31.43;15.80;;;0.20;77.90;;;;;;5007291;28;20261;-58
2023/03/01 09:06:15;;;;;;;34.50;15.90;;;0.20;78.70;;;;;;5011230;28;20182;-57
2023/03/01 09:08:47;;;;;;;32.13;16.80;;;0.30;78.30;;;;;;5026240;28;20182;-57
2023/03/01 09:11:16;;;;;;;29.53;15.27;;;0.30;77.20;;;;;;5000015;28;20476;-57
2023/03/01 09:13:42;;;;;;;34.60;15.40;;;0.30;76.00;;;;;;5007748;28;20999;-59
2023/03/01 09:16:10;;;;;;;34.10;16.60;;;0.30;76.00;;;;;;5005848;28;20441;-59
2023/03/01 09:18:36;;;;;;;31.77;15.63;;;0.30;76.50;;;;;;5006834;28;20445;-56
2023/03/01 09:21:07;;;;;;;34.80;16.37;;;0.30;75.90;;;;;;5008593;28;20445;-58
2023/03/01 09:23:38;;;;;;;34.40;16.20;;;0.40;75.50;;;;;;5001211;28;20466;-57
2023/03/01 09:26:08;;;;;;;34.80;16.90;;;0.40;75.90;;;;;;5001666;28;21041;-59
2023/03/01 09:28:35;;;;;;;30.37;15.40;;;0.40;75.80;;;;;;5000353;28;20462;-60
2023/03/01 09:31:02;;;;;;;30.40;15.30;;;0.40;74.30;;;;;;5008029;28;20438;-57
2023/03/01 09:33:32;;;;;;;36.60;16.60;;;0.40;74.00;;;;;;5004742;28;20441;-58
2023/03/01 09:36:03;;;;;;;30.77;15.83;;;0.50;74.10;;;;;;5005995;28;20463;-58
2023/03/01 09:38:29;;;;;;;34.17;17.20;;;0.50;73.90;;;;;;5006348;28;21133;-58
2023/03/01 09:40:55;;;;;;;30.30;16.77;;;0.50;74.60;;;;;;5004630;28;20529;-60
2023/03/01 09:43:33;;;;;;;32.40;17.00;;;0.50;76.00;;;;;;5009966;28;20545;-60
2023/03/01 09:46:04;;;;;;;29.17;15.53;;;0.60;76.40;;;;;;5024830;28;20458;-59
2023/03/01 09:48:41;;;;;;;34.53;16.70;;;0.60;75.20;;;;;;5010166;28;21083;-60
2023/03/01 09:51:14;;;;;;;39.77;17.47;;;0.60;74.50;;;;;;5005546;28;20429;-59
2023/03/01 09:53:39;;;;;;;34.47;17.00;;;0.60;73.40;;;;;;5005885;28;20449;-61
2023/03/01 09:56:32;;;;;;;49.00;16.97;;;0.70;73.10;;;;;;5004429;28;20441;-59
2023/03/01 09:59:26;;;;;;;33.93;15.40;;;0.70;73.80;;;;;;5001404;28;20180;-60
2023/03/01 10:02:16;;;;;;;32.40;16.03;;;0.80;73.10;;;;;;5004875;28;20968;-58
2023/03/01 10:04:46;;;;;;;30.03;15.33;;;0.80;73.00;;;;;;5003035;28;20553;-59
2023/03/01 10:07:32;;;;;;;37.87;15.70;;;0.80;73.30;;;;;;5003318;28;20448;-60
2023/03/01 10:10:00;;;;;;;33.83;16.47;;;0.80;72.70;;;;;;5016008;28;20432;-59
2023/03/01 10:12:32;;;;;;;29.43;15.53;;;0.80;72.80;;;;;;5013007;28;20453;-59
2023/03/01 10:15:07;;;;;;;36.33;16.83;;;0.80;72.30;;;;;;5001828;28;20469;-61
2023/03/01 10:17:39;;;;;;;34.63;16.33;;;0.80;72.60;;;;;;5002220;28;20516;-61
2023/03/01 10:20:15;;;;;;;32.30;16.87;;;0.80;72.10;;;;;;5002201;28;20461;-60
2023/03/01 10:22:41;;;;;;;27.70;15.00;;;0.80;71.60;;;;;;5006422;28;21021;-62
2023/03/01 10:25:12;;;;;;;31.30;16.40;;;0.90;70.80;;;;;;5001053;28;20633;-60
2023/03/01 10:27:51;;;;;;;29.63;16.70;;;0.90;70.40;;;;;;5003712;28;20633;-60
2023/03/01 10:30:22;;;;;;;34.33;17.20;;;0.90;70.40;;;;;;5001179;28;20490;-60
2023/03/01 10:32:50;;;;;;;29.60;15.07;;;0.90;70.80;;;;;;5007343;28;20532;-59
2023/03/01 10:35:17;;;;;;;37.17;17.30;;;1.00;71.10;;;;;;4995267;28;20469;-59
2023/03/01 10:38:06;;;;;;;33.53;16.83;;;1.10;71.00;;;;;;5001073;28;20438;-60
2023/03/01 10:40:34;;;;;;;32.07;16.90;;;1.20;70.10;;;;;;5012172;28;20442;-59
2023/03/01 10:43:05;;;;;;;32.20;16.00;;;1.20;69.10;;;;;;5004004;28;20461;-61
2023/03/01 10:45:38;;;;;;;35.13;17.23;;;1.20;69.00;;;;;;5007025;28;20477;-59
2023/03/01 10:48:13;;;;;;;36.00;17.53;;;1.20;68.90;;;;;;5002337;28;20425;-60
2023/03/01 10:50:44;;;;;;;34.03;17.00;;;1.30;69.00;;;;;;4997326;28;20433;-60
2023/03/01 10:53:32;;;;;;;31.23;16.13;;;1.30;68.60;;;;;;4996402;28;20441;-62
2023/03/01 10:56:09;;;;;;;32.07;16.80;;;1.40;68.40;;;;;;4998364;28;20461;-55
2023/03/01 10:58:37;;;;;;;30.67;15.17;;;1.40;68.60;;;;;;4997696;28;20437;-61
2023/03/01 11:01:03;;;;;;;32.70;17.43;;;1.50;69.40;;;;;;5003043;28;20959;-59
2023/03/01 11:03:32;;;;;;;29.23;15.83;;;1.60;68.50;;;;;;5001507;28;20463;-59
2023/03/01 11:06:00;;;;;;;31.53;14.87;;;1.70;67.40;;;;;;5000498;28;20203;-58
2023/03/01 11:08:47;;;;;;;29.90;15.27;;;1.70;67.20;;;;;;4997070;28;20453;-61
2023/03/01 11:11:16;;;;;;;26.57;14.40;;;1.80;66.80;;;;;;4998315;28;20441;-59
2023/03/01 11:14:43;;;;;;;32.70;16.50;;;1.80;66.30;;;;;;5006802;28;20454;-60
2023/03/01 11:17:15;;;;;;;29.80;15.43;;;1.90;66.10;;;;;;4944057;28;20961;-60
2023/03/01 11:19:40;;;;;;;34.67;15.93;;;1.80;65.80;;;;;;4998020;28;20452;-61
2023/03/01 11:22:13;;;;;;;36.57;16.40;;;1.80;66.00;;;;;;4998379;28;20477;-60
2023/03/01 11:24:46;;;;;;;31.30;16.10;;;1.80;66.20;;;;;;5013030;28;20188;-58
2023/03/01 11:27:34;;;;;;;25.87;15.60;;;1.90;66.30;;;;;;5006752;28;20519;-58
2023/03/01 11:30:13;;;;;;;31.07;15.97;;;1.90;66.10;;;;;;5008747;28;20414;-59
2023/03/01 11:33:08;;;;;;;31.20;16.47;;;2.00;66.20;;;;;;5017462;28;20435;-59
2023/03/01 11:35:42;;;;;;;25.93;14.93;;;2.10;65.60;;;;;;4949296;28;20467;-59
2023/03/01 11:38:38;;;;;;;37.40;17.43;;;2.10;65.20;;;;;;5001116;28;20501;-60
2023/03/01 11:41:15;;;;;;;34.40;16.97;;;2.20;64.80;;;;;;4990943;28;20458;-59
2023/03/01 11:43:49;;;;;;;33.47;16.67;;;2.20;64.60;;;;;;5002386;28;20500;-56
2023/03/01 11:46:36;;;;;;;32.17;15.57;;;2.10;64.60;;;;;;5000714;28;20509;-56
2023/03/01 11:49:25;;;;;;;36.53;17.37;;;2.10;64.50;;;;;;5003638;28;20515;-58
2023/03/01 11:52:01;;;;;;;41.23;19.23;;;2.00;64.60;;;;;;5003051;28;20434;-60
2023/03/01 11:54:46;;;;;;;32.53;17.77;;;2.00;65.00;;;;;;5003642;28;20486;-61
2023/03/01 11:57:36;;;;;;;34.20;17.27;;;2.00;65.70;;;;;;5000540;28;20439;-59
2023/03/01 12:00:16;;;;;;;39.47;19.90;;;2.00;66.00;;;;;;5001786;28;20449;-60
2023/03/01 12:03:25;;;;;;;31.03;16.77;;;2.10;65.20;;;;;;5015395;28;20453;-59
2023/03/01 12:06:05;;;;;;;33.43;16.93;;;2.10;64.60;;;;;;5001835;28;20443;-60
2023/03/01 12:08:37;;;;;;;32.90;17.63;;;2.10;64.70;;;;;;5000932;28;21013;-60
2023/03/01 12:11:34;;;;;;;34.57;18.50;;;2.10;64.60;;;;;;4993093;28;20452;-60
2023/03/01 12:14:13;;;;;;;32.50;17.90;;;2.20;64.70;;;;;;5005425;28;20518;-62
2023/03/01 12:17:10;;;;;;;35.17;17.93;;;2.20;64.10;;;;;;5005111;28;21005;-62
2023/03/01 12:20:15;;;;;;;33.73;18.33;;;2.30;63.60;;;;;;4998640;28;20978;-59
2023/03/01 12:22:56;;;;;;;43.90;19.70;;;2.30;63.80;;;;;;5004859;28;20466;-61
2023/03/01 12:25:39;;;;;;;33.83;17.93;;;2.40;63.60;;;;;;5002565;28;20447;-59
2023/03/01 12:28:10;;;;;;;33.57;17.50;;;2.40;63.20;;;;;;5016155;28;20481;-59
2023/03/01 12:31:28;;;;;;;33.27;16.80;;;2.40;63.00;;;;;;5000546;28;20434;-59
2023/03/01 12:33:53;;;;;;;38.00;20.17;;;2.50;65.40;;;;;;4974866;28;20481;-60
2023/03/01 12:36:56;;;;;;;36.93;18.30;;;2.60;65.20;;;;;;5006454;28;20435;-60
2023/03/01 12:39:43;;;;;;;38.87;19.73;;;2.70;64.70;;;;;;5006502;28;20349;-59
2023/03/01 12:42:09;;;;;;;33.70;18.63;;;3.00;64.60;;;;;;5004066;28;20438;-59
2023/03/01 12:44:53;;;;;;;36.77;17.83;;;3.20;63.90;;;;;;5012675;28;21245;-59
2023/03/01 12:47:37;;;;;;;31.17;17.33;;;3.40;62.60;;;;;;5002842;28;20184;-60
2023/03/01 12:50:13;;;;;;;32.77;17.43;;;3.40;60.60;;;;;;5011810;28;20487;-60